• Join FlightAware (Why Join?)
  • Login
  • US Flag 
05:44PM EST


 

Airport Tracker/Info


-or-


 

Live Flight TrackerFlight Track Log ✈ SWA1044 ✈ 10-Apr-2013 ✈ KMSP - KMCI

Flight Track Log - Related Links

Times and Time Zones

All times are in EDT time to prevent confusion due to time zone crossing. See the SWA1044 flight status page for this flight to view local times or setup timezone preferences in your user account.

Time Position Orientation Groundspeed Altitude Reporting Facility
EDT Latitude Longitude Course Direction KTS MPH feet Rate Location/Type
08:16AM 44.8672 -93.1906 129° Southeast 168 193 3,100  Level FAA TRACON SMA TRACON (SMA)
08:17AM 44.8572 -93.1733 129° Southeast 178 205 4,200 3,180 Climbing FAA TRACON SMA TRACON (SMA)
08:17AM 44.8467 -93.1536 127° Southeast 197 227 5,200 2,880 Climbing FAA TRACON SMA TRACON (SMA)
08:17AM 44.8322 -93.1244 125° Southeast 229 264 6,200 3,300 Climbing FAA TRACON SMA TRACON (SMA)
08:18AM 44.8128 -93.1097 152° Southeast 259 298 7,400 3,360 Climbing FAA TRACON SMA TRACON (SMA)
08:18AM 44.7894 -93.1103 181° South 278 320 8,400 3,600 Climbing FAA TRACON SMA TRACON (SMA)
08:18AM 44.7619 -93.1347 212° Southwest 306 352 9,900 4,200 Climbing FAA TRACON SMA TRACON (SMA)
08:19AM 44.7433 -93.1614 226° Southwest 313 360 11,300 3,840 Climbing FAA TRACON SMA TRACON (SMA)
08:19AM 44.7244 -93.1897 227° Southwest 320 368 12,400 4,260 Climbing FAA TRACON SMA TRACON (SMA)
08:19AM 44.6992 -93.2244 224° Southwest 330 380 14,100 3,780 Climbing FAA TRACON SMA TRACON (SMA)
08:20AM 44.6794 -93.2531 226° Southwest 331 381 15,000 2,880 Climbing FAA TRACON SMA TRACON (SMA)
08:20AM 44.6581 -93.2828 225° Southwest 345 397 16,100 3,900 Climbing FAA TRACON SMA TRACON (SMA)
08:20AM 44.6317 -93.3197 225° Southwest 350 403 17,600 4,020 Climbing FAA TRACON SMA TRACON (SMA)
08:21AM 44.6114 -93.3508 228° Southwest 350 403 18,800 3,600 Climbing FAA TRACON SMA TRACON (SMA)
08:21AM 44.5908 -93.3803 226° Southwest 348 400 20,100 3,720 Climbing FAA TRACON SMA TRACON (SMA)
08:21AM 44.5706 -93.4094 226° Southwest 343 395 21,300 3,840 Climbing FAA TRACON SMA TRACON (SMA)
08:22AM 44.5458 -93.4458 226° Southwest 337 388 22,600 2,700 Climbing FAA TRACON SMA TRACON (SMA)
08:22AM 44.5258 -93.4744 226° Southwest 333 383 23,100 2,220 Climbing FAA TRACON SMA TRACON (SMA)
08:22AM 44.5061 -93.5031 226° Southwest 331 381 24,100 3,840 Climbing FAA TRACON SMA TRACON (SMA)
08:23AM 44.4819 -93.5378 226° Southwest 326 375 25,600 3,660 Climbing FAA TRACON SMA TRACON (SMA)
08:23AM 44.4575 -93.5719 225° Southwest 321 369 26,700 2,820 Climbing FAA TRACON SMA TRACON (SMA)
08:23AM 44.4383 -93.5986 225° Southwest 320 368 27,700 2,640 Climbing FAA TRACON SMA TRACON (SMA)
08:24AM 44.4181 -93.6247 223° Southwest 320 368 28,400 2,160 Climbing FAA TRACON SMA TRACON (SMA)
08:24AM 44.3950 -93.6467 214° Southwest 323 372 29,000 1,800 Climbing FAA TRACON SMA TRACON (SMA)
08:24AM 44.3714 -93.6681 213° Southwest 329 379 29,600 2,100 Climbing FAA TRACON SMA TRACON (SMA)
08:25AM 44.3397 -93.6931 209° Southwest 337 388 30,400 1,800 Climbing FAA TRACON SMA TRACON (SMA)
08:25AM 44.3136 -93.7117 207° Southwest 343 395 30,800 1,140 Climbing FAA TRACON SMA TRACON (SMA)
08:25AM 44.2767 -93.7258 195° South 354 407 31,200 1,020 Climbing FAA TRACON SMA TRACON (SMA)
08:26AM 44.2458 -93.7361 193° South 365 420 31,500 1,380 Climbing FAA TRACON SMA TRACON (SMA)
08:26AM 44.2147 -93.7489 196° South 375 432 32,100 1,980 Climbing FAA TRACON SMA TRACON (SMA)
08:26AM 44.1833 -93.7592 193° South 378 435 32,800 2,400 Climbing FAA TRACON SMA TRACON (SMA)
08:27AM 44.1447 -93.7739 195° South 376 433 33,700 2,700 Climbing FAA TRACON SMA TRACON (SMA)
08:27AM 44.1142 -93.7856 195° South 372 428 34,600 2,760 Climbing FAA TRACON SMA TRACON (SMA)
08:27AM 44.0761 -93.7989 194° South 367 422 35,600 2,700 Climbing FAA TRACON SMA TRACON (SMA)
08:28AM 44.0461 -93.8086 193° South 360 414 36,400 2,280 Climbing FAA TRACON SMA TRACON (SMA)
08:28AM 44.0172 -93.8192 195° South 354 407 37,100 2,040 Climbing FAA TRACON SMA TRACON (SMA)
08:28AM 43.9883 -93.8289 194° South 351 404 37,800 1,560 Climbing FAA TRACON SMA TRACON (SMA)
08:29AM 43.9483 -93.8392 190° South 351 404 38,600 1,080 Climbing Minneapolis Center
08:30AM 43.8564 -93.8711 194° South 344 396 39,600 660 Climbing Minneapolis Center
08:31AM 43.7400 -93.9114 194° South 356 410 40,000 180 Climbing Minneapolis Center
08:32AM 43.6411 -93.9450 194° South 364 419 40,000  Level Minneapolis Center
08:33AM 43.5419 -93.9792 194° South 368 423 40,000  Level Minneapolis Center
08:34AM 43.4500 -94.0100 194° South 370 426 40,000  Level Minneapolis Center
08:35AM 43.3503 -94.0447 194° South 371 427 40,000  Level Minneapolis Center
08:36AM 43.2511 -94.0794 194° South 372 428 40,000  Level Minneapolis Center
08:37AM 43.1311 -94.1206 194° South 373 429 40,000  Level Minneapolis Center
08:38AM 43.0331 -94.1531 194° South 368 423 40,000  Level Minneapolis Center
08:39AM 42.9344 -94.1867 194° South 367 422 40,000  Level Minneapolis Center
08:40AM 42.8364 -94.2208 194° South 367 422 40,000  Level Minneapolis Center
08:41AM 42.7375 -94.2536 194° South 368 423 40,000  Level Minneapolis Center
08:42AM 42.6403 -94.2864 194° South 364 419 40,000  Level Minneapolis Center
08:43AM 42.5458 -94.3233 196° South 360 414 40,000  Level Minneapolis Center
08:44AM 42.4325 -94.3697 197° South 356 410 40,000  Level Minneapolis Center
08:45AM 42.3397 -94.4122 199° South 354 407 40,000  Level Minneapolis Center
08:46AM 42.2469 -94.4522 198° South 351 404 40,000  Level Minneapolis Center
08:47AM 42.1492 -94.4897 196° South 360 414 40,000  Level Minneapolis Center
08:48AM 42.0536 -94.5292 197° South 360 414 40,000  Level Minneapolis Center
08:49AM 41.9594 -94.5694 198° South 355 409 40,000  Level Minneapolis Center
08:50AM 41.8628 -94.6094 197° South 360 414 40,000  Level Minneapolis Center
08:51AM 41.7667 -94.6506 198° South 362 417 40,000  Level Minneapolis Center
08:52AM 41.6700 -94.6906 197° South 362 417 40,000  Level Minneapolis Center
08:53AM 41.5731 -94.7294 197° South 363 418 40,000  Level Minneapolis Center
08:54AM 41.4767 -94.7692 197° South 361 415 40,000  Level Minneapolis Center
08:55AM 41.3817 -94.8103 198° South 359 413 40,000  Level Minneapolis Center
08:56AM 41.2656 -94.8556 196° South 360 414 40,000  Level Minneapolis Center
08:57AM 41.1689 -94.8958 197° South 362 417 40,000  Level Minneapolis Center
08:58AM 41.0725 -94.9353 197° South 361 415 40,000  Level Minneapolis Center
08:59AM 40.9756 -94.9747 197° South 361 415 40,000  Level Minneapolis Center
09:00AM 40.8803 -95.0136 197° South 360 414 40,000  Level Minneapolis Center
09:01AM 40.7853 -95.0519 197° South 356 410 40,000 -180 Level Minneapolis Center
09:02AM 40.6903 -95.0900 197° South 355 409 39,700 -1,380 Descending Minneapolis Center
09:04AM 40.5983 -95.1269 197° South 351 404 37,200 -3,300 Descending Minneapolis Center
09:05AM 40.5028 -95.1639 196° South 351 404 33,000 -4,320 Descending Minneapolis Center
09:06AM 40.3956 -95.2081 197° South 381 438 28,400 -4,200 Descending Minneapolis Center
09:07AM 40.2847 -95.2528 197° South 406 467 24,500 -3,540 Descending Minneapolis Center
09:08AM 40.1786 -95.2944 197° South 403 464 21,300 -2,940 Descending Minneapolis Center
09:08AM 40.0922 -95.3281 197° South 388 447 19,000 -3,060 Descending Kansas City Center
09:09AM 39.9850 -95.3686 196° South 362 417 15,600 -3,000 Descending Kansas City Center
09:10AM 39.8967 -95.4036 197° South 350 403 13,000 -1,800 Descending Kansas City Center
09:12AM 39.7969 -95.3672 164° South 358 412 11,900 -540 Descending Kansas City Center
09:13AM 39.7228 -95.2892 141° Southeast 358 412 11,900  Level Kansas City Center
09:14AM 39.6486 -95.2122 141° Southeast 355 409 12,000 -60 Climbing Kansas City Center
09:15AM 39.5631 -95.1214 141° Southeast 353 406 11,800 -840 Descending Kansas City Center
09:16AM 39.4928 -95.0497 142° Southeast 333 383 10,400 -1,260 Descending Kansas City Center
09:17AM 39.4322 -94.9867 141° Southeast 294 338 9,300 -1,140 Descending Kansas City Center
09:18AM 39.3697 -94.9217 141° Southeast 257 296 8,100 -1,260 Descending Kansas City Center
09:19AM 39.3172 -94.8725 144° Southeast 248 285 6,800 -1,140 Descending Kansas City Center
09:20AM 39.2536 -94.8733 181° South 236 272 5,800 -960 Descending Kansas City Center
09:21AM 39.1822 -94.8786 183° South 229 264 4,900 -840 Descending Kansas City Center
09:22AM 39.1233 -94.8764 178° South 225 259 4,100 -960 Descending Kansas City Center
09:23AM 39.1242 -94.8039 89° East 216 249 2,900 -600 Descending Kansas City Center
09:24AM 39.1686 -94.7642 35° Northeast 205 236 2,900  Level Kansas City Center